NCAR-RAP Real-Time Weather Data

Output produced by METARs form (01 October 2022  05:10 UTC)
found at http://weather.rap.ucar.edu/surface/
 
VVDN 010500Z 09006KT 040V110 9999 FEW013 SCT060 30/24 Q1009 NOSIG
VVDN 010430Z 09004KT 030V140 9999 FEW013 SCT060 30/25 Q1009 NOSIG
VVDN 010400Z 17003KT 140V230 9999 FEW013 SCT060 31/24 Q1010 NOSIG
VVDN 010330Z 22003KT 160V250 9999 FEW013 SCT060 31/24 Q1010 NOSIG
VVDN 010300Z 23004KT 200V270 9999 FEW013 SCT060 31/24 Q1010 NOSIG
VVDN 010230Z VRB01KT 9999 FEW013 SCT060 28/24 Q1010 NOSIG
VVDN 010200Z VRB02KT 9999 FEW013 SCT050 28/25 Q1010 NOSIG
VVDN 010130Z 20003KT 9999 FEW013 SCT050 28/25 Q1010 NOSIG
VVDN 010100Z 19004KT 9999 FEW013 SCT050 26/25 Q1010 NOSIG
VVDN 010030Z 19003KT 8000 FEW013 SCT050 26/25 Q1009 NOSIG
VVDN 010000Z 19003KT 8000 FEW013 SCT050 26/25 Q1009 NOSIG
VVDN 302330Z 19003KT 8000 FEW013 SCT050 26/25 Q1009 NOSIG
VVDN 302300Z 18002KT 8000 FEW013 BKN050 25/24 Q1009 NOSIG
VVDN 302230Z 00000KT 8000 FEW013 BKN050 25/24 Q1008 NOSIG
VVDN 302200Z 00000KT 8000 SCT013 BKN050 25/24 Q1008 NOSIG
VVDN 302130Z VRB01KT 8000 SCT013 BKN050 25/24 Q1008 NOSIG
VVDN 302100Z 20002KT 8000 SCT013 BKN050 25/24 Q1008 NOSIG
VVDN 302030Z 20002KT 8000 -RA SCT013 BKN050 25/24 Q1007 NOSIG
VVDN 302000Z 20002KT 8000 -RA SCT013 BKN050 25/24 Q1007 NOSIG
VVDN 301930Z 20001KT 8000 -RA SCT013 BKN060 25/25 Q1007 NOSIG
VVDN 301900Z 00000KT 8000 -RA SCT013 FEW017CB BKN060 25/24 Q1007 NOSIG
VVDN 301830Z 29002KT 8000 -RA SCT013 FEW017CB BKN060 25/24 Q1008 NOSIG
VVDN 301800Z 31002KT 8000 -RA SCT013 FEW017CB BKN060 25/24 Q1008 NOSIG
VVDN 301730Z 29003KT 8000 -RA SCT013 FEW017CB BKN060 25/24 Q1009 NOSIG